sensor_id;sensor_type;location;lat;lon;timestamp;pressure;altitude;pressure_sealevel;temperature;humidity
17072;BME280;7731;50.720;6.912;2023-10-09T00:02:12;100570.56;;;15.45;100.00
17072;BME280;7731;50.720;6.912;2023-10-09T00:04:43;100563.91;;;15.41;100.00
17072;BME280;7731;50.720;6.912;2023-10-09T00:07:13;100566.31;;;15.44;100.00
17072;BME280;7731;50.720;6.912;2023-10-09T00:09:44;100561.13;;;15.44;100.00
17072;BME280;7731;50.720;6.912;2023-10-09T00:12:19;100566.50;;;15.41;100.00
17072;BME280;7731;50.720;6.912;2023-10-09T00:14:54;100557.81;;;15.42;100.00
17072;BME280;7731;50.720;6.912;2023-10-09T00:17:40;100564.00;;;15.40;100.00
17072;BME280;7731;50.720;6.912;2023-10-09T00:20:14;100563.91;;;15.41;100.00
17072;BME280;7731;50.720;6.912;2023-10-09T00:22:49;100563.03;;;15.55;100.00
17072;BME280;7731;50.720;6.912;2023-10-09T00:25:19;100561.06;;;15.59;100.00
17072;BME280;7731;50.720;6.912;2023-10-09T00:27:58;100556.22;;;15.40;100.00
17072;BME280;7731;50.720;6.912;2023-10-09T00:30:32;100566.34;;;15.30;100.00
17072;BME280;7731;50.720;6.912;2023-10-09T00:33:06;100555.44;;;15.25;100.00
17072;BME280;7731;50.720;6.912;2023-10-09T00:35:41;100554.34;;;15.14;100.00
17072;BME280;7731;50.720;6.912;2023-10-09T00:38:22;100555.09;;;15.16;100.00
17072;BME280;7731;50.720;6.912;2023-10-09T00:41:00;100553.22;;;15.18;100.00
17072;BME280;7731;50.720;6.912;2023-10-09T00:43:39;100550.44;;;15.22;100.00
17072;BME280;7731;50.720;6.912;2023-10-09T00:46:11;100546.84;;;15.24;100.00
17072;BME280;7731;50.720;6.912;2023-10-09T00:48:56;100544.25;;;15.24;100.00
17072;BME280;7731;50.720;6.912;2023-10-09T00:51:30;100543.16;;;15.14;100.00
17072;BME280;7731;50.720;6.912;2023-10-09T00:54:05;100541.22;;;15.03;100.00
17072;BME280;7731;50.720;6.912;2023-10-09T00:56:44;100534.31;;;14.89;100.00
17072;BME280;7731;50.720;6.912;2023-10-09T00:59:26;100526.66;;;14.88;100.00
17072;BME280;7731;50.720;6.912;2023-10-09T01:01:58;100521.09;;;14.94;100.00
17072;BME280;7731;50.720;6.912;2023-10-09T01:04:35;100526.94;;;14.97;100.00
17072;BME280;7731;50.720;6.912;2023-10-09T01:07:11;100516.69;;;14.96;100.00
17072;BME280;7731;50.720;6.912;2023-10-09T01:09:43;100524.97;;;15.01;100.00
17072;BME280;7731;50.720;6.912;2023-10-09T01:12:17;100516.84;;;15.07;100.00
17072;BME280;7731;50.720;6.912;2023-10-09T01:14:48;100517.47;;;15.11;100.00
17072;BME280;7731;50.720;6.912;2023-10-09T01:17:20;100514.97;;;15.09;100.00
17072;BME280;7731;50.720;6.912;2023-10-09T01:20:08;100513.81;;;15.00;100.00
17072;BME280;7731;50.720;6.912;2023-10-09T01:22:44;100511.03;;;14.89;100.00
17072;BME280;7731;50.720;6.912;2023-10-09T01:25:20;100501.34;;;14.78;100.00
17072;BME280;7731;50.720;6.912;2023-10-09T01:27:51;100508.75;;;14.70;100.00
17072;BME280;7731;50.720;6.912;2023-10-09T01:30:21;100506.44;;;14.66;100.00
17072;BME280;7731;50.720;6.912;2023-10-09T01:32:51;100500.63;;;14.62;100.00
17072;BME280;7731;50.720;6.912;2023-10-09T01:35:25;100503.53;;;14.56;100.00
17072;BME280;7731;50.720;6.912;2023-10-09T01:37:59;100497.22;;;14.61;100.00
17072;BME280;7731;50.720;6.912;2023-10-09T01:40:32;100499.84;;;14.60;100.00
17072;BME280;7731;50.720;6.912;2023-10-09T01:43:05;100500.31;;;14.52;100.00
17072;BME280;7731;50.720;6.912;2023-10-09T01:45:37;100502.00;;;14.53;100.00
17072;BME280;7731;50.720;6.912;2023-10-09T01:48:14;100491.47;;;14.56;100.00
17072;BME280;7731;50.720;6.912;2023-10-09T01:50:51;100491.94;;;14.49;100.00
17072;BME280;7731;50.720;6.912;2023-10-09T01:53:21;100490.53;;;14.43;100.00
17072;BME280;7731;50.720;6.912;2023-10-09T01:56:09;100488.94;;;14.40;100.00
17072;BME280;7731;50.720;6.912;2023-10-09T01:58:43;100481.56;;;14.34;100.00
17072;BME280;7731;50.720;6.912;2023-10-09T02:01:15;100479.75;;;14.36;100.00
17072;BME280;7731;50.720;6.912;2023-10-09T02:03:46;100475.19;;;14.40;100.00
17072;BME280;7731;50.720;6.912;2023-10-09T02:06:19;100472.53;;;14.41;100.00
17072;BME280;7731;50.720;6.912;2023-10-09T02:08:59;100470.56;;;14.45;100.00
17072;BME280;7731;50.720;6.912;2023-10-09T02:11:38;100468.84;;;14.45;100.00
17072;BME280;7731;50.720;6.912;2023-10-09T02:14:12;100468.09;;;14.58;100.00
17072;BME280;7731;50.720;6.912;2023-10-09T02:16:52;100473.75;;;14.64;100.00
17072;BME280;7731;50.720;6.912;2023-10-09T02:19:39;100476.25;;;14.66;100.00
17072;BME280;7731;50.720;6.912;2023-10-09T02:22:10;100477.91;;;14.67;100.00
17072;BME280;7731;50.720;6.912;2023-10-09T02:24:45;100483.91;;;14.68;100.00
17072;BME280;7731;50.720;6.912;2023-10-09T02:27:28;100482.03;;;14.70;100.00
17072;BME280;7731;50.720;6.912;2023-10-09T02:30:20;100473.19;;;14.59;100.00
17072;BME280;7731;50.720;6.912;2023-10-09T02:32:57;100478.63;;;14.55;100.00
17072;BME280;7731;50.720;6.912;2023-10-09T02:35:34;100476.97;;;14.54;100.00
17072;BME280;7731;50.720;6.912;2023-10-09T02:38:10;100480.63;;;14.50;100.00
17072;BME280;7731;50.720;6.912;2023-10-09T02:40:42;100475.66;;;14.46;100.00
17072;BME280;7731;50.720;6.912;2023-10-09T02:43:46;100482.88;;;14.41;100.00
17072;BME280;7731;50.720;6.912;2023-10-09T02:46:21;100481.94;;;14.42;100.00
17072;BME280;7731;50.720;6.912;2023-10-09T02:48:58;100478.34;;;14.45;100.00
17072;BME280;7731;50.720;6.912;2023-10-09T02:51:35;100468.84;;;14.45;100.00
17072;BME280;7731;50.720;6.912;2023-10-09T02:54:09;100471.25;;;14.49;100.00
17072;BME280;7731;50.720;6.912;2023-10-09T02:56:56;100460.16;;;14.46;100.00
17072;BME280;7731;50.720;6.912;2023-10-09T02:59:39;100468.84;;;14.45;100.00
17072;BME280;7731;50.720;6.912;2023-10-09T03:02:12;100471.97;;;14.51;100.00
17072;BME280;7731;50.720;6.912;2023-10-09T03:04:42;100470.97;;;14.53;100.00
17072;BME280;7731;50.720;6.912;2023-10-09T03:07:13;100464.50;;;14.46;100.00
17072;BME280;7731;50.720;6.912;2023-10-09T03:09:43;100466.34;;;14.44;100.00
17072;BME280;7731;50.720;6.912;2023-10-09T03:12:14;100467.16;;;14.44;100.00
17072;BME280;7731;50.720;6.912;2023-10-09T03:14:56;100467.34;;;14.41;100.00
17072;BME280;7731;50.720;6.912;2023-10-09T03:17:30;100468.25;;;14.40;100.00
17072;BME280;7731;50.720;6.912;2023-10-09T03:20:04;100470.03;;;14.40;100.00
17072;BME280;7731;50.720;6.912;2023-10-09T03:22:41;100471.88;;;14.38;100.00
17072;BME280;7731;50.720;6.912;2023-10-09T03:25:19;100472.72;;;14.38;100.00
17072;BME280;7731;50.720;6.912;2023-10-09T03:27:52;100478.25;;;14.32;100.00
17072;BME280;7731;50.720;6.912;2023-10-09T03:30:26;100465.78;;;14.24;100.00
17072;BME280;7731;50.720;6.912;2023-10-09T03:33:00;100464.59;;;14.30;100.00
17072;BME280;7731;50.720;6.912;2023-10-09T03:35:31;100454.25;;;14.30;100.00
17072;BME280;7731;50.720;6.912;2023-10-09T03:38:03;100459.25;;;14.33;100.00
17072;BME280;7731;50.720;6.912;2023-10-09T03:40:41;100452.41;;;14.32;100.00
17072;BME280;7731;50.720;6.912;2023-10-09T03:43:15;100462.38;;;14.24;100.00
17072;BME280;7731;50.720;6.912;2023-10-09T03:45:49;100461.06;;;14.31;100.00
17072;BME280;7731;50.720;6.912;2023-10-09T03:48:24;100467.63;;;14.22;100.00
17072;BME280;7731;50.720;6.912;2023-10-09T03:51:02;100472.34;;;14.30;100.00
17072;BME280;7731;50.720;6.912;2023-10-09T03:53:40;100470.69;;;14.15;100.00
17072;BME280;7731;50.720;6.912;2023-10-09T03:56:14;100465.69;;;14.11;100.00
17072;BME280;7731;50.720;6.912;2023-10-09T03:58:47;100460.16;;;14.18;100.00
17072;BME280;7731;50.720;6.912;2023-10-09T04:01:22;100466.59;;;14.10;100.00
17072;BME280;7731;50.720;6.912;2023-10-09T04:03:57;100462.25;;;13.97;100.00
17072;BME280;7731;50.720;6.912;2023-10-09T04:06:30;100462.59;;;13.90;100.00
17072;BME280;7731;50.720;6.912;2023-10-09T04:09:03;100465.03;;;14.08;100.00
17072;BME280;7731;50.720;6.912;2023-10-09T04:11:55;100469.63;;;14.17;100.00
17072;BME280;7731;50.720;6.912;2023-10-09T04:14:42;100476.47;;;14.04;100.00
17072;BME280;7731;50.720;6.912;2023-10-09T04:17:24;100471.03;;;14.08;100.00
17072;BME280;7731;50.720;6.912;2023-10-09T04:20:11;100463.38;;;14.07;100.00
17072;BME280;7731;50.720;6.912;2023-10-09T04:22:53;100453.97;;;14.06;100.00
17072;BME280;7731;50.720;6.912;2023-10-09T04:25:32;100458.66;;;14.14;100.00
17072;BME280;7731;50.720;6.912;2023-10-09T04:28:17;100458.13;;;14.08;100.00
17072;BME280;7731;50.720;6.912;2023-10-09T04:30:49;100456.81;;;14.16;100.00
17072;BME280;7731;50.720;6.912;2023-10-09T04:33:28;100454.78;;;14.06;100.00
17072;BME280;7731;50.720;6.912;2023-10-09T04:36:10;100452.38;;;14.03;100.00
17072;BME280;7731;50.720;6.912;2023-10-09T04:38:53;100448.88;;;14.04;100.00
17072;BME280;7731;50.720;6.912;2023-10-09T04:41:43;100454.03;;;14.04;100.00
17072;BME280;7731;50.720;6.912;2023-10-09T04:44:43;100449.25;;;13.98;100.00
17072;BME280;7731;50.720;6.912;2023-10-09T04:47:27;100452.47;;;14.02;100.00
17072;BME280;7731;50.720;6.912;2023-10-09T04:50:09;100440.22;;;14.05;100.00
17072;BME280;7731;50.720;6.912;2023-10-09T04:53:00;100449.69;;;14.05;100.00
17072;BME280;7731;50.720;6.912;2023-10-09T04:55:50;100458.47;;;14.02;100.00
17072;BME280;7731;50.720;6.912;2023-10-09T04:58:37;100458.66;;;13.99;100.00
17072;BME280;7731;50.720;6.912;2023-10-09T05:01:08;100452.56;;;14.00;100.00
17072;BME280;7731;50.720;6.912;2023-10-09T05:03:44;100460.09;;;13.89;100.00
17072;BME280;7731;50.720;6.912;2023-10-09T05:06:27;100451.91;;;13.97;100.00
17072;BME280;7731;50.720;6.912;2023-10-09T05:09:22;100449.59;;;13.92;100.00
17072;BME280;7731;50.720;6.912;2023-10-09T05:11:51;100444.78;;;13.86;100.00
17072;BME280;7731;50.720;6.912;2023-10-09T05:14:37;100436.69;;;14.06;100.00
17072;BME280;7731;50.720;6.912;2023-10-09T05:17:13;100437.72;;;14.33;100.00
17072;BME280;7731;50.720;6.912;2023-10-09T05:19:58;100453.50;;;14.28;100.00
17072;BME280;7731;50.720;6.912;2023-10-09T05:22:43;100451.66;;;14.16;100.00
17072;BME280;7731;50.720;6.912;2023-10-09T05:25:26;100457.34;;;14.06;100.00
17072;BME280;7731;50.720;6.912;2023-10-09T05:28:10;100459.56;;;13.98;100.00
17072;BME280;7731;50.720;6.912;2023-10-09T05:30:55;100445.25;;;13.92;100.00
17072;BME280;7731;50.720;6.912;2023-10-09T05:33:34;100453.22;;;14.04;100.00
17072;BME280;7731;50.720;6.912;2023-10-09T05:36:06;100446.38;;;14.03;100.00
17072;BME280;7731;50.720;6.912;2023-10-09T05:39:02;100450.28;;;14.10;100.00
17072;BME280;7731;50.720;6.912;2023-10-09T05:41:45;100451.66;;;14.16;100.00
17072;BME280;7731;50.720;6.912;2023-10-09T05:44:22;100450.00;;;14.15;100.00
17072;BME280;7731;50.720;6.912;2023-10-09T05:47:05;100446.47;;;14.16;100.00
17072;BME280;7731;50.720;6.912;2023-10-09T05:49:47;100441.13;;;14.19;100.00
17072;BME280;7731;50.720;6.912;2023-10-09T05:52:31;100431.38;;;14.24;100.00
17072;BME280;7731;50.720;6.912;2023-10-09T05:55:20;100435.13;;;14.18;100.00
17072;BME280;7731;50.720;6.912;2023-10-09T05:58:10;100434.03;;;14.37;100.00
17072;BME280;7731;50.720;6.912;2023-10-09T06:00:53;100438.38;;;14.36;100.00
17072;BME280;7731;50.720;6.912;2023-10-09T06:03:55;100440.88;;;14.38;100.00
17072;BME280;7731;50.720;6.912;2023-10-09T06:06:40;100440.75;;;14.54;100.00
17072;BME280;7731;50.720;6.912;2023-10-09T06:09:14;100437.16;;;14.71;100.00
17072;BME280;7731;50.720;6.912;2023-10-09T06:12:00;100443.25;;;14.55;100.00
17072;BME280;7731;50.720;6.912;2023-10-09T06:14:43;100446.66;;;14.56;100.00
17072;BME280;7731;50.720;6.912;2023-10-09T06:17:25;100441.53;;;14.70;100.00
17072;BME280;7731;50.720;6.912;2023-10-09T06:20:11;100446.94;;;14.51;100.00
17072;BME280;7731;50.720;6.912;2023-10-09T06:22:53;100460.19;;;14.61;100.00
17072;BME280;7731;50.720;6.912;2023-10-09T06:25:43;100456.56;;;14.63;100.00
17072;BME280;7731;50.720;6.912;2023-10-09T06:28:21;100452.78;;;14.69;100.00
17072;BME280;7731;50.720;6.912;2023-10-09T06:31:00;100460.72;;;14.66;100.00
17072;BME280;7731;50.720;6.912;2023-10-09T06:33:49;100449.25;;;14.85;100.00
17072;BME280;7731;50.720;6.912;2023-10-09T06:36:45;100441.06;;;15.05;100.00
17072;BME280;7731;50.720;6.912;2023-10-09T06:39:20;100443.41;;;15.63;100.00
17072;BME280;7731;50.720;6.912;2023-10-09T06:42:04;100441.22;;;15.57;100.00
17072;BME280;7731;50.720;6.912;2023-10-09T06:45:04;100464.00;;;15.51;100.00
17072;BME280;7731;50.720;6.912;2023-10-09T06:47:36;100458.31;;;15.86;100.00
17072;BME280;7731;50.720;6.912;2023-10-09T06:50:10;100457.03;;;15.79;100.00
17072;BME280;7731;50.720;6.912;2023-10-09T06:53:16;100482.06;;;15.39;100.00
17072;BME280;7731;50.720;6.912;2023-10-09T06:55:53;100471.88;;;15.23;100.00
17072;BME280;7731;50.720;6.912;2023-10-09T06:58:33;100462.25;;;15.65;100.00
17072;BME280;7731;50.720;6.912;2023-10-09T07:01:12;100463.81;;;15.67;100.00
17072;BME280;7731;50.720;6.912;2023-10-09T07:04:08;100469.81;;;15.55;100.00
17072;BME280;7731;50.720;6.912;2023-10-09T07:06:47;100477.88;;;15.50;100.00
17072;BME280;7731;50.720;6.912;2023-10-09T07:09:19;100467.31;;;15.53;100.00
17072;BME280;7731;50.720;6.912;2023-10-09T07:11:49;100477.88;;;15.50;100.00
17072;BME280;7731;50.720;6.912;2023-10-09T07:14:37;100484.03;;;15.62;100.00
17072;BME280;7731;50.720;6.912;2023-10-09T07:17:22;100517.63;;;15.77;100.00
17072;BME280;7731;50.720;6.912;2023-10-09T07:19:54;100519.50;;;15.47;100.00
17072;BME280;7731;50.720;6.912;2023-10-09T07:22:37;100519.63;;;15.86;100.00
17072;BME280;7731;50.720;6.912;2023-10-09T07:25:21;100513.47;;;16.14;100.00
17072;BME280;7731;50.720;6.912;2023-10-09T07:28:17;100520.53;;;16.38;100.00
17072;BME280;7731;50.720;6.912;2023-10-09T07:31:04;100523.84;;;16.66;100.00
17072;BME280;7731;50.720;6.912;2023-10-09T07:33:40;100524.75;;;16.77;100.00
17072;BME280;7731;50.720;6.912;2023-10-09T07:36:27;100518.41;;;16.94;100.00
17072;BME280;7731;50.720;6.912;2023-10-09T07:39:03;100524.63;;;17.29;100.00
17072;BME280;7731;50.720;6.912;2023-10-09T07:41:41;100519.06;;;17.46;100.00
17072;BME280;7731;50.720;6.912;2023-10-09T07:44:24;100517.06;;;17.50;100.00
17072;BME280;7731;50.720;6.912;2023-10-09T07:47:06;100511.31;;;17.34;100.00
17072;BME280;7731;50.720;6.912;2023-10-09T07:49:53;100526.19;;;17.31;100.00
17072;BME280;7731;50.720;6.912;2023-10-09T07:52:27;100519.53;;;17.40;100.00
17072;BME280;7731;50.720;6.912;2023-10-09T07:54:57;100529.28;;;17.37;100.00
17072;BME280;7731;50.720;6.912;2023-10-09T07:57:49;100521.13;;;17.54;100.00
17072;BME280;7731;50.720;6.912;2023-10-09T08:00:20;100520.78;;;17.35;100.00
17072;BME280;7731;50.720;6.912;2023-10-09T08:03:05;100525.41;;;17.18;100.00
17072;BME280;7731;50.720;6.912;2023-10-09T08:05:54;100533.94;;;17.20;100.00
17072;BME280;7731;50.720;6.912;2023-10-09T08:08:37;100534.47;;;17.12;100.00
17072;BME280;7731;50.720;6.912;2023-10-09T08:11:29;100529.56;;;17.45;100.00
17072;BME280;7731;50.720;6.912;2023-10-09T08:14:27;100528.28;;;17.50;100.00
17072;BME280;7731;50.720;6.912;2023-10-09T08:17:10;100531.78;;;17.62;100.00
17072;BME280;7731;50.720;6.912;2023-10-09T08:19:50;100530.66;;;17.78;100.00
17072;BME280;7731;50.720;6.912;2023-10-09T08:22:27;100531.63;;;18.12;100.00
17072;BME280;7731;50.720;6.912;2023-10-09T08:25:17;100525.38;;;18.26;100.00
17072;BME280;7731;50.720;6.912;2023-10-09T08:27:58;100538.16;;;18.52;100.00
17072;BME280;7731;50.720;6.912;2023-10-09T08:30:48;100545.50;;;18.35;100.00
17072;BME280;7731;50.720;6.912;2023-10-09T08:33:18;100554.69;;;18.39;100.00
17072;BME280;7731;50.720;6.912;2023-10-09T08:36:04;100551.09;;;18.99;100.00
17072;BME280;7731;50.720;6.912;2023-10-09T08:38:42;100553.81;;;18.97;100.00
17072;BME280;7731;50.720;6.912;2023-10-09T08:41:13;100547.41;;;18.79;100.00
17072;BME280;7731;50.720;6.912;2023-10-09T08:43:52;100544.19;;;18.75;100.00
17072;BME280;7731;50.720;6.912;2023-10-09T08:46:25;100553.88;;;18.84;100.00
17072;BME280;7731;50.720;6.912;2023-10-09T08:48:58;100538.16;;;18.74;100.00
17072;BME280;7731;50.720;6.912;2023-10-09T08:51:32;100550.28;;;18.98;99.26
17072;BME280;7731;50.720;6.912;2023-10-09T08:54:07;100543.97;;;19.12;98.38
17072;BME280;7731;50.720;6.912;2023-10-09T08:56:42;100541.22;;;18.80;100.00
17072;BME280;7731;50.720;6.912;2023-10-09T08:59:25;100547.66;;;18.87;100.00
17072;BME280;7731;50.720;6.912;2023-10-09T09:01:55;100532.16;;;19.40;94.67
17072;BME280;7731;50.720;6.912;2023-10-09T09:04:35;100519.88;;;19.31;93.94
17072;BME280;7731;50.720;6.912;2023-10-09T09:07:30;100530.09;;;19.12;98.93
17072;BME280;7731;50.720;6.912;2023-10-09T09:10:09;100517.56;;;19.05;100.00
17072;BME280;7731;50.720;6.912;2023-10-09T09:12:49;100536.50;;;19.19;100.00
17072;BME280;7731;50.720;6.912;2023-10-09T09:15:28;100535.56;;;19.20;100.00
17072;BME280;7731;50.720;6.912;2023-10-09T09:18:07;100565.34;;;19.27;100.00
17072;BME280;7731;50.720;6.912;2023-10-09T09:20:45;100585.75;;;19.22;100.00
17072;BME280;7731;50.720;6.912;2023-10-09T09:23:21;100579.53;;;19.89;99.82
17072;BME280;7731;50.720;6.912;2023-10-09T09:25:54;100562.81;;;20.34;94.26
17072;BME280;7731;50.720;6.912;2023-10-09T09:28:52;100533.00;;;20.98;88.69
17072;BME280;7731;50.720;6.912;2023-10-09T09:31:25;100494.28;;;21.72;80.31
17072;BME280;7731;50.720;6.912;2023-10-09T09:33:56;100493.53;;;21.99;75.44
17072;BME280;7731;50.720;6.912;2023-10-09T09:36:34;100472.47;;;22.01;72.96
17072;BME280;7731;50.720;6.912;2023-10-09T09:39:05;100472.44;;;22.76;67.42
17072;BME280;7731;50.720;6.912;2023-10-09T09:41:49;100483.72;;;22.86;63.74
17072;BME280;7731;50.720;6.912;2023-10-09T09:44:20;100484.22;;;22.72;62.38
17072;BME280;7731;50.720;6.912;2023-10-09T09:54:33;100481.44;;;21.98;55.23
17072;BME280;7731;50.720;6.912;2023-10-09T09:57:13;100473.81;;;22.80;53.73
17072;BME280;7731;50.720;6.912;2023-10-09T09:59:54;100476.50;;;23.16;52.13
17072;BME280;7731;50.720;6.912;2023-10-09T10:02:35;100466.28;;;22.95;53.34
17072;BME280;7731;50.720;6.912;2023-10-09T10:05:09;100451.69;;;23.46;53.11
17072;BME280;7731;50.720;6.912;2023-10-09T10:07:43;100450.91;;;23.98;52.71
17072;BME280;7731;50.720;6.912;2023-10-09T10:10:36;100435.47;;;26.04;47.08
17072;BME280;7731;50.720;6.912;2023-10-09T10:17:03;100434.84;;;24.95;48.46
17072;BME280;7731;50.720;6.912;2023-10-09T10:20:03;100429.91;;;24.92;49.73
17072;BME280;7731;50.720;6.912;2023-10-09T10:23:18;100428.91;;;24.68;50.82
17072;BME280;7731;50.720;6.912;2023-10-09T10:25:53;100426.81;;;24.37;53.28
17072;BME280;7731;50.720;6.912;2023-10-09T10:28:30;100421.66;;;24.62;51.49
17072;BME280;7731;50.720;6.912;2023-10-09T10:31:07;100432.22;;;25.03;50.58
17072;BME280;7731;50.720;6.912;2023-10-09T10:34:05;100414.53;;;25.46;49.46
17072;BME280;7731;50.720;6.912;2023-10-09T10:36:38;100417.03;;;26.04;46.98
17072;BME280;7731;50.720;6.912;2023-10-09T10:39:12;100410.50;;;26.31;46.73
17072;BME280;7731;50.720;6.912;2023-10-09T10:42:05;100410.88;;;25.23;45.73
17072;BME280;7731;50.720;6.912;2023-10-09T10:44:41;100415.25;;;26.36;42.89
17072;BME280;7731;50.720;6.912;2023-10-09T10:47:13;100408.53;;;25.69;42.80
17072;BME280;7731;50.720;6.912;2023-10-09T10:49:51;100406.44;;;25.23;43.86
17072;BME280;7731;50.720;6.912;2023-10-09T10:52:27;100410.78;;;24.57;45.58
17072;BME280;7731;50.720;6.912;2023-10-09T10:55:13;100405.31;;;25.42;44.78
17072;BME280;7731;50.720;6.912;2023-10-09T10:57:56;100403.31;;;25.44;43.25
17072;BME280;7731;50.720;6.912;2023-10-09T11:00:32;100415.81;;;24.93;45.65
17072;BME280;7731;50.720;6.912;2023-10-09T11:03:18;100407.38;;;25.72;42.37
17072;BME280;7731;50.720;6.912;2023-10-09T11:06:02;100415.78;;;25.67;42.09
17072;BME280;7731;50.720;6.912;2023-10-09T11:08:45;100414.53;;;25.30;43.23
17072;BME280;7731;50.720;6.912;2023-10-09T11:11:23;100407.13;;;26.06;41.52
17072;BME280;7731;50.720;6.912;2023-10-09T11:14:08;100421.66;;;25.85;42.55
17072;BME280;7731;50.720;6.912;2023-10-09T11:16:46;100420.72;;;25.04;43.27
17072;BME280;7731;50.720;6.912;2023-10-09T11:19:22;100425.34;;;25.10;41.84
17072;BME280;7731;50.720;6.912;2023-10-09T11:21:58;100427.91;;;24.61;43.67
17072;BME280;7731;50.720;6.912;2023-10-09T11:24:51;100428.59;;;24.80;43.87
17072;BME280;7731;50.720;6.912;2023-10-09T11:27:41;100433.84;;;24.80;43.87
17072;BME280;7731;50.720;6.912;2023-10-09T11:30:31;100436.47;;;24.88;44.42
17072;BME280;7731;50.720;6.912;2023-10-09T11:33:07;100436.19;;;24.99;45.17
17072;BME280;7731;50.720;6.912;2023-10-09T11:35:54;100435.53;;;24.46;47.82
17072;BME280;7731;50.720;6.912;2023-10-09T11:38:36;100437.81;;;24.06;48.21
17072;BME280;7731;50.720;6.912;2023-10-09T11:41:12;100436.00;;;24.41;48.26
17072;BME280;7731;50.720;6.912;2023-10-09T11:43:52;100433.72;;;24.98;47.05
17072;BME280;7731;50.720;6.912;2023-10-09T11:46:23;100432.78;;;24.56;46.41
17072;BME280;7731;50.720;6.912;2023-10-09T11:49:10;100440.16;;;24.52;47.56
17072;BME280;7731;50.720;6.912;2023-10-09T11:52:08;100429.22;;;24.65;48.92
17072;BME280;7731;50.720;6.912;2023-10-09T11:55:06;100438.13;;;24.38;50.39
17072;BME280;7731;50.720;6.912;2023-10-09T11:57:42;100437.28;;;24.29;49.65
17072;BME280;7731;50.720;6.912;2023-10-09T12:00:13;100437.81;;;24.06;45.78
17072;BME280;7731;50.720;6.912;2023-10-09T12:02:56;100436.63;;;24.27;45.03
17072;BME280;7731;50.720;6.912;2023-10-09T12:05:35;100439.59;;;24.32;44.69
17072;BME280;7731;50.720;6.912;2023-10-09T12:08:12;100442.88;;;23.74;45.19
17072;BME280;7731;50.720;6.912;2023-10-09T12:10:50;100437.44;;;23.49;44.48
17072;BME280;7731;50.720;6.912;2023-10-09T12:13:25;100432.25;;;23.57;45.34
17072;BME280;7731;50.720;6.912;2023-10-09T12:15:56;100446.22;;;23.84;45.27
17072;BME280;7731;50.720;6.912;2023-10-09T12:18:26;100443.00;;;23.46;46.22
17072;BME280;7731;50.720;6.912;2023-10-09T12:20:59;100440.81;;;23.05;46.02
17072;BME280;7731;50.720;6.912;2023-10-09T12:23:33;100435.31;;;23.26;45.33
17072;BME280;7731;50.720;6.912;2023-10-09T12:26:05;100430.59;;;23.30;45.88
17072;BME280;7731;50.720;6.912;2023-10-09T12:28:42;100437.00;;;22.99;46.48
17072;BME280;7731;50.720;6.912;2023-10-09T12:31:15;100424.38;;;23.13;47.45
17072;BME280;7731;50.720;6.912;2023-10-09T12:33:48;100428.19;;;23.36;46.23
17072;BME280;7731;50.720;6.912;2023-10-09T12:36:21;100434.00;;;22.94;46.64
17072;BME280;7731;50.720;6.912;2023-10-09T12:38:52;100434.84;;;22.95;46.61
17072;BME280;7731;50.720;6.912;2023-10-09T12:41:26;100447.69;;;22.88;46.83
17072;BME280;7731;50.720;6.912;2023-10-09T12:44:01;100443.22;;;22.98;45.91
17072;BME280;7731;50.720;6.912;2023-10-09T12:46:32;100445.53;;;23.01;46.34
17072;BME280;7731;50.720;6.912;2023-10-09T12:49:05;100442.47;;;22.70;46.07
17072;BME280;7731;50.720;6.912;2023-10-09T12:51:38;100450.53;;;22.77;46.19
17072;BME280;7731;50.720;6.912;2023-10-09T12:54:09;100447.44;;;22.63;46.91
17072;BME280;7731;50.720;6.912;2023-10-09T12:56:43;100445.06;;;22.88;46.54
17072;BME280;7731;50.720;6.912;2023-10-09T12:59:16;100440.44;;;22.82;46.33
17072;BME280;7731;50.720;6.912;2023-10-09T13:01:48;100441.91;;;22.67;47.38
17072;BME280;7731;50.720;6.912;2023-10-09T13:04:20;100436.81;;;22.47;46.90
17072;BME280;7731;50.720;6.912;2023-10-09T13:07:03;100430.44;;;22.50;46.27
17072;BME280;7731;50.720;6.912;2023-10-09T13:09:34;100436.25;;;22.43;45.69
17072;BME280;7731;50.720;6.912;2023-10-09T13:12:10;100429.13;;;22.36;46.41
17072;BME280;7731;50.720;6.912;2023-10-09T13:14:47;100443.38;;;22.51;46.25
17072;BME280;7731;50.720;6.912;2023-10-09T13:17:20;100437.84;;;22.54;46.92
17072;BME280;7731;50.720;6.912;2023-10-09T13:19:55;100445.69;;;22.54;46.29
17072;BME280;7731;50.720;6.912;2023-10-09T13:22:28;100429.69;;;22.39;46.13
17072;BME280;7731;50.720;6.912;2023-10-09T13:24:59;100439.75;;;22.24;46.70
17072;BME280;7731;50.720;6.912;2023-10-09T13:27:33;100439.00;;;22.42;46.22
17072;BME280;7731;50.720;6.912;2023-10-09T13:30:11;100438.50;;;22.28;46.53
17072;BME280;7731;50.720;6.912;2023-10-09T13:32:49;100430.19;;;22.43;46.21
17072;BME280;7731;50.720;6.912;2023-10-09T13:35:20;100424.19;;;22.33;45.85
17072;BME280;7731;50.720;6.912;2023-10-09T13:38:07;100434.78;;;22.59;46.22
17072;BME280;7731;50.720;6.912;2023-10-09T13:40:38;100440.59;;;22.35;46.48
17072;BME280;7731;50.720;6.912;2023-10-09T13:43:08;100445.31;;;22.49;45.21
17072;BME280;7731;50.720;6.912;2023-10-09T13:45:44;100442.09;;;22.27;45.93
17072;BME280;7731;50.720;6.912;2023-10-09T13:48:18;100445.94;;;22.23;46.52
17072;BME280;7731;50.720;6.912;2023-10-09T13:50:58;100457.78;;;22.27;45.76
17072;BME280;7731;50.720;6.912;2023-10-09T13:53:37;100458.81;;;22.07;46.56
17072;BME280;7731;50.720;6.912;2023-10-09T13:56:14;100453.22;;;21.92;46.39
17072;BME280;7731;50.720;6.912;2023-10-09T13:58:47;100448.19;;;22.08;46.46
17072;BME280;7731;50.720;6.912;2023-10-09T14:01:18;100446.47;;;21.89;47.07
17072;BME280;7731;50.720;6.912;2023-10-09T14:04:06;100444.97;;;21.87;47.26
17072;BME280;7731;50.720;6.912;2023-10-09T14:06:36;100449.09;;;21.89;47.06